createdAt,value
2022-10-07T00:01:23.575Z,55.65
2022-10-07T00:04:09.188Z,51.83
2022-10-07T00:06:54.986Z,49.40
2022-10-07T00:09:40.505Z,60.63
2022-10-07T00:12:26.382Z,53.80
2022-10-07T00:15:11.820Z,54.17
2022-10-07T00:17:57.488Z,51.75
2022-10-07T00:20:42.945Z,56.72
2022-10-07T00:23:28.620Z,52.65
2022-10-07T00:26:17.121Z,52.25
2022-10-07T00:29:04.773Z,56.13
2022-10-07T00:31:54.807Z,54.80
2022-10-07T00:34:43.481Z,55.35
2022-10-07T00:37:32.581Z,49.70
2022-10-07T00:40:18.103Z,53.72
2022-10-07T00:43:21.539Z,51.30
2022-10-07T00:49:14.477Z,51.58
2022-10-07T00:51:59.950Z,56.78
2022-10-07T00:54:46.503Z,52.83
2022-10-07T00:57:33.444Z,49.63
2022-10-07T01:00:21.847Z,48.83
2022-10-07T01:03:07.491Z,56.88
2022-10-07T01:05:53.200Z,50.92
2022-10-07T01:08:39.006Z,45.85
2022-10-07T01:11:43.255Z,58.22
2022-10-07T01:14:33.883Z,50.90
2022-10-07T01:17:31.710Z,56.25
2022-10-07T01:20:33.384Z,57.63
2022-10-07T01:23:37.856Z,54.05
2022-10-07T01:26:44.754Z,55.13
2022-10-07T01:29:44.063Z,55.25
2022-10-07T01:32:37.933Z,54.70
2022-10-07T01:35:27.369Z,57.78
2022-10-07T01:38:16.317Z,52.70
2022-10-07T01:41:08.472Z,56.65
2022-10-07T01:43:54.927Z,55.55
2022-10-07T01:46:40.525Z,55.97
2022-10-07T01:49:27.202Z,77.85
2022-10-07T01:52:12.897Z,53.70
2022-10-07T01:55:24.592Z,60.53
2022-10-07T01:58:22.627Z,61.60
2022-10-07T02:01:08.259Z,58.83
2022-10-07T02:04:21.086Z,59.33
2022-10-07T02:07:58.155Z,51.75
2022-10-07T02:11:05.832Z,55.45
2022-10-07T02:14:14.210Z,61.95
2022-10-07T02:17:11.482Z,58.22
2022-10-07T02:20:01.516Z,53.97
2022-10-07T02:22:49.825Z,56.15
2022-10-07T02:25:40.182Z,56.20
2022-10-07T02:28:26.886Z,50.38
2022-10-07T02:31:17.779Z,53.05
2022-10-07T02:34:05.792Z,63.85
2022-10-07T02:36:55.916Z,63.15
2022-10-07T02:39:43.658Z,56.17
2022-10-07T02:42:33.676Z,58.47
2022-10-07T02:45:27.099Z,57.13
2022-10-07T02:48:21.870Z,56.22
2022-10-07T02:51:18.653Z,60.25
2022-10-07T02:54:07.136Z,61.35
2022-10-07T02:56:54.125Z,58.47
2022-10-07T02:59:41.469Z,57.53
2022-10-07T03:02:51.375Z,59.30
2022-10-07T03:05:37.203Z,61.45
2022-10-07T03:08:24.531Z,59.72
2022-10-07T03:11:12.006Z,63.05
2022-10-07T03:13:58.454Z,67.40
2022-10-07T03:16:44.012Z,65.63
2022-10-07T03:19:29.813Z,62.30
2022-10-07T03:22:17.453Z,64.05
2022-10-07T03:25:03.282Z,66.22
2022-10-07T03:27:49.265Z,59.95
2022-10-07T03:30:35.554Z,62.35
2022-10-07T03:33:25.012Z,60.00
2022-10-07T03:36:10.917Z,60.58
2022-10-07T03:38:59.415Z,57.38
2022-10-07T03:41:48.474Z,62.08
2022-10-07T03:44:35.618Z,58.50
2022-10-07T03:47:21.748Z,68.63
2022-10-07T03:50:08.827Z,64.25
2022-10-07T03:52:54.814Z,62.85
2022-10-07T03:55:41.142Z,68.75
2022-10-07T03:58:26.582Z,67.32
2022-10-07T04:01:15.010Z,63.35
2022-10-07T04:04:11.539Z,63.63
2022-10-07T04:06:57.162Z,62.83
2022-10-07T04:09:42.771Z,62.35
2022-10-07T04:12:33.495Z,61.50
2022-10-07T04:15:20.754Z,72.50
2022-10-07T04:18:07.081Z,65.63
2022-10-07T04:20:53.273Z,67.88
2022-10-07T04:23:42.248Z,77.15
2022-10-07T04:26:28.054Z,77.38
2022-10-07T04:29:13.647Z,67.35
2022-10-07T04:31:59.871Z,63.85
2022-10-07T04:34:45.094Z,63.40
2022-10-07T04:37:31.403Z,63.45
2022-10-07T04:40:17.406Z,68.22
2022-10-07T04:43:23.539Z,70.20
2022-10-07T04:46:15.036Z,68.93
2022-10-07T04:49:10.558Z,67.72
2022-10-07T04:51:57.845Z,68.65
2022-10-07T04:54:48.462Z,68.90
2022-10-07T04:57:34.747Z,74.75
2022-10-07T05:00:20.651Z,68.30
2022-10-07T05:03:07.740Z,64.82
2022-10-07T05:05:56.952Z,68.88
2022-10-07T05:08:44.275Z,65.70
2022-10-07T05:11:31.552Z,74.47
2022-10-07T05:14:24.215Z,66.60
2022-10-07T05:17:11.739Z,67.45
2022-10-07T05:19:57.401Z,65.82
2022-10-07T05:22:43.930Z,68.90
2022-10-07T05:25:29.511Z,81.72
2022-10-07T05:28:16.095Z,71.97
2022-10-07T05:31:13.163Z,76.00
2022-10-07T05:34:00.760Z,74.72
2022-10-07T05:36:47.393Z,67.50
2022-10-07T05:39:33.243Z,75.68
2022-10-07T05:42:31.699Z,76.60
2022-10-07T05:45:20.031Z,77.65
2022-10-07T05:48:05.580Z,75.00
2022-10-07T05:50:52.498Z,76.20
2022-10-07T05:53:41.287Z,68.55
2022-10-07T05:56:27.523Z,62.85
2022-10-07T05:59:14.821Z,59.10
2022-10-07T06:02:02.623Z,62.53
2022-10-07T06:04:49.112Z,62.47
2022-10-07T06:07:35.816Z,62.95
2022-10-07T06:10:41.155Z,63.67
2022-10-07T06:13:27.243Z,55.78
2022-10-07T06:16:13.173Z,59.67
2022-10-07T06:18:59.906Z,56.13
2022-10-07T06:21:47.353Z,63.30
2022-10-07T06:24:33.892Z,61.45
2022-10-07T06:27:20.822Z,62.58
2022-10-07T06:30:07.652Z,57.55
2022-10-07T06:32:53.689Z,65.00
2022-10-07T06:35:40.306Z,67.55
2022-10-07T06:38:27.860Z,56.38
2022-10-07T06:41:14.247Z,60.47
2022-10-07T06:44:00.727Z,64.40
2022-10-07T06:46:46.621Z,61.50
2022-10-07T06:49:33.162Z,77.00
2022-10-07T06:52:18.822Z,70.07
2022-10-07T06:55:04.823Z,72.00
2022-10-07T06:57:51.615Z,60.05
2022-10-07T07:00:39.732Z,62.20
2022-10-07T07:03:26.773Z,65.68
2022-10-07T07:06:14.845Z,81.15
2022-10-07T07:09:05.219Z,79.05
2022-10-07T07:11:56.397Z,81.88
2022-10-07T07:14:46.668Z,70.10
2022-10-07T07:17:37.747Z,65.15
2022-10-07T07:20:24.398Z,67.80
2022-10-07T07:23:11.064Z,71.88
2022-10-07T07:25:57.090Z,72.13
2022-10-07T07:28:42.888Z,70.03
2022-10-07T07:31:30.696Z,72.15
2022-10-07T07:34:16.476Z,61.97
2022-10-07T07:37:03.849Z,67.75
2022-10-07T07:39:56.454Z,74.78
2022-10-07T07:42:42.775Z,70.20
2022-10-07T07:45:29.153Z,61.70
2022-10-07T07:48:15.299Z,58.70
2022-10-07T07:51:01.669Z,59.15
2022-10-07T07:53:49.950Z,51.85
2022-10-07T07:56:36.951Z,55.08
2022-10-07T07:59:25.146Z,53.63
2022-10-07T08:02:12.648Z,55.05
2022-10-07T08:05:01.715Z,54.33
2022-10-07T08:07:47.795Z,56.75
2022-10-07T08:10:34.162Z,58.05
2022-10-07T08:13:19.783Z,74.68
2022-10-07T08:16:06.385Z,57.42
2022-10-07T08:18:53.343Z,62.55
2022-10-07T08:21:39.824Z,53.47
2022-10-07T08:24:28.337Z,62.72
2022-10-07T08:27:14.194Z,67.43
2022-10-07T08:30:00.212Z,60.33
2022-10-07T08:32:45.823Z,52.17
2022-10-07T08:35:31.687Z,49.05
2022-10-07T08:38:17.126Z,56.22
2022-10-07T08:41:16.162Z,45.03
2022-10-07T08:44:16.710Z,55.00
2022-10-07T08:47:11.619Z,54.40
2022-10-07T08:50:18.151Z,59.38
2022-10-07T08:53:08.771Z,47.13
2022-10-07T08:56:17.852Z,52.22
2022-10-07T08:59:17.797Z,46.08
2022-10-07T09:02:23.478Z,53.00
2022-10-07T09:05:33.817Z,47.65
2022-10-07T09:08:28.553Z,49.25
2022-10-07T09:11:20.566Z,43.50
2022-10-07T09:14:23.998Z,53.70
2022-10-07T09:17:35.186Z,55.15
2022-10-07T09:20:26.776Z,51.75
2022-10-07T09:23:16.140Z,52.08
2022-10-07T09:26:01.642Z,42.15
2022-10-07T09:28:47.443Z,36.63
2022-10-07T09:31:33.643Z,42.72
2022-10-07T09:34:25.515Z,41.70
2022-10-07T09:37:19.346Z,45.55
2022-10-07T09:40:30.920Z,42.03
2022-10-07T09:43:18.909Z,53.72
2022-10-07T09:46:06.188Z,46.42
2022-10-07T09:48:54.841Z,42.88
2022-10-07T09:51:41.158Z,48.58
2022-10-07T09:54:28.089Z,41.33
2022-10-07T09:57:27.738Z,46.05
2022-10-07T10:00:13.435Z,42.85
2022-10-07T10:03:05.509Z,40.67
2022-10-07T10:06:00.416Z,40.15
2022-10-07T10:08:55.389Z,44.35
2022-10-07T10:11:41.538Z,36.35
2022-10-07T10:14:35.605Z,45.58
2022-10-07T10:17:32.028Z,39.47
2022-10-07T10:20:20.843Z,31.33
2022-10-07T10:23:37.739Z,30.48
2022-10-07T10:26:36.312Z,39.42
2022-10-07T10:29:21.561Z,44.65
2022-10-07T10:32:13.540Z,45.40
2022-10-07T10:35:22.066Z,27.25
2022-10-07T10:38:35.630Z,29.65
2022-10-07T10:41:43.965Z,27.92
2022-10-07T10:44:56.666Z,39.72
2022-10-07T10:48:13.469Z,39.60
2022-10-07T10:51:31.426Z,27.85
2022-10-07T10:54:56.290Z,33.15
2022-10-07T10:58:00.682Z,38.00
2022-10-07T11:01:00.087Z,26.55
2022-10-07T11:04:17.591Z,41.65
2022-10-07T11:07:14.568Z,42.90
2022-10-07T11:10:07.055Z,38.90
2022-10-07T11:13:00.033Z,33.60
2022-10-07T11:16:27.108Z,34.22
2022-10-07T11:19:18.634Z,34.08
2022-10-07T11:22:11.201Z,38.08
2022-10-07T11:25:28.656Z,34.58
2022-10-07T11:28:23.068Z,30.52
2022-10-07T11:31:17.528Z,30.80
2022-10-07T11:34:41.835Z,34.70
2022-10-07T11:40:16.634Z,30.85
2022-10-07T11:43:09.137Z,37.70
2022-10-07T11:46:17.399Z,40.88
2022-10-07T11:49:12.402Z,30.63
2022-10-07T11:52:01.401Z,26.90
2022-10-07T11:55:00.942Z,31.38
2022-10-07T11:57:54.158Z,26.52
2022-10-07T12:00:40.481Z,29.35
2022-10-07T12:03:26.015Z,21.40
2022-10-07T12:06:12.167Z,27.65
2022-10-07T12:08:57.572Z,30.38
2022-10-07T12:11:46.887Z,20.13
2022-10-07T12:14:41.104Z,32.80
2022-10-07T12:17:30.589Z,20.00
2022-10-07T12:20:35.525Z,21.40
2022-10-07T12:23:26.632Z,19.08
2022-10-07T12:26:31.411Z,31.52
2022-10-07T12:29:28.733Z,22.52
2022-10-07T12:32:40.712Z,23.65
2022-10-07T12:35:32.363Z,24.88
2022-10-07T12:38:29.436Z,28.50
2022-10-07T12:41:29.511Z,27.27
2022-10-07T12:44:26.766Z,33.75
2022-10-07T12:47:19.262Z,19.00
2022-10-07T12:50:12.716Z,30.20
2022-10-07T12:53:02.564Z,25.83
2022-10-07T12:55:50.678Z,22.35
2022-10-07T12:59:45.958Z,23.60
2022-10-07T13:02:56.778Z,23.27
2022-10-07T13:06:27.126Z,20.20
2022-10-07T13:09:46.071Z,15.93
2022-10-07T13:12:50.760Z,17.70
2022-10-07T13:15:45.779Z,23.88
2022-10-07T13:18:57.100Z,20.60
2022-10-07T13:21:52.154Z,23.08
2022-10-07T13:24:53.890Z,27.88
2022-10-07T13:27:42.044Z,26.15
2022-10-07T13:30:42.444Z,21.23
2022-10-07T13:33:31.927Z,18.48
2022-10-07T13:36:24.423Z,18.08
2022-10-07T13:39:19.443Z,24.88
2022-10-07T13:42:11.334Z,18.60
2022-10-07T13:45:02.628Z,20.42
2022-10-07T13:47:49.243Z,19.33
2022-10-07T13:50:35.789Z,20.10
2022-10-07T13:53:26.177Z,17.73
2022-10-07T13:56:40.509Z,14.20
2022-10-07T13:59:26.629Z,15.75
2022-10-07T14:02:18.464Z,11.20
2022-10-07T14:05:20.133Z,17.38
2022-10-07T14:08:17.019Z,23.05
2022-10-07T14:11:16.307Z,12.32
2022-10-07T14:14:05.775Z,12.40
2022-10-07T14:16:59.818Z,13.32
2022-10-07T14:19:53.437Z,12.47
2022-10-07T14:22:41.908Z,15.88
2022-10-07T14:25:30.147Z,14.57
2022-10-07T14:28:24.920Z,12.63
2022-10-07T14:31:40.271Z,15.63
2022-10-07T14:34:44.175Z,13.13
2022-10-07T14:37:31.970Z,15.75
2022-10-07T14:40:23.517Z,20.42
2022-10-07T14:43:09.384Z,15.63
2022-10-07T14:45:54.981Z,17.67
2022-10-07T14:48:40.538Z,13.75
2022-10-07T14:51:29.455Z,18.52
2022-10-07T14:54:15.379Z,20.30
2022-10-07T14:57:01.018Z,22.42
2022-10-07T14:59:50.114Z,21.75
2022-10-07T15:02:35.724Z,20.92
2022-10-07T15:05:22.921Z,19.38
2022-10-07T15:08:11.638Z,15.75
2022-10-07T15:10:58.191Z,16.15
2022-10-07T15:13:46.637Z,17.98
2022-10-07T15:16:32.342Z,14.25
2022-10-07T15:19:19.295Z,22.05
2022-10-07T15:22:05.687Z,21.58
2022-10-07T15:24:51.378Z,13.40
2022-10-07T15:27:37.840Z,25.35
2022-10-07T15:30:23.412Z,22.42
2022-10-07T15:33:10.367Z,17.40
2022-10-07T15:35:57.796Z,17.25
2022-10-07T15:38:43.891Z,16.75
2022-10-07T15:46:54.489Z,15.35
2022-10-07T15:49:40.694Z,16.63
2022-10-07T15:52:27.703Z,16.52
2022-10-07T15:55:13.413Z,19.15
2022-10-07T15:57:59.032Z,17.50
2022-10-07T16:01:00.461Z,17.42
2022-10-07T16:03:48.675Z,16.45
2022-10-07T16:06:35.752Z,13.68
2022-10-07T16:09:22.894Z,13.77
2022-10-07T16:12:08.880Z,15.20
2022-10-07T16:14:54.807Z,12.15
2022-10-07T16:17:40.197Z,19.65
2022-10-07T16:20:25.808Z,17.05
2022-10-07T16:23:11.597Z,14.93
2022-10-07T16:25:56.971Z,9.35
2022-10-07T16:29:03.298Z,15.27
2022-10-07T16:31:49.417Z,21.52
2022-10-07T16:34:35.274Z,16.08
2022-10-07T16:37:20.861Z,28.70
2022-10-07T16:40:10.068Z,17.00
2022-10-07T16:42:57.590Z,28.40
2022-10-07T16:45:43.303Z,15.57
2022-10-07T16:48:30.564Z,18.33
2022-10-07T16:51:19.151Z,17.88
2022-10-07T16:54:07.591Z,23.10
2022-10-07T16:56:53.259Z,19.10
2022-10-07T16:59:39.658Z,23.15
2022-10-07T17:02:24.920Z,18.90
2022-10-07T17:05:11.186Z,25.00
2022-10-07T17:07:56.675Z,20.33
2022-10-07T17:10:42.395Z,19.15
2022-10-07T17:13:31.681Z,22.58
2022-10-07T17:16:17.235Z,18.48
2022-10-07T17:19:07.248Z,22.75
2022-10-07T17:21:56.237Z,24.95
2022-10-07T17:24:42.151Z,16.30
2022-10-07T17:27:27.826Z,30.05
2022-10-07T17:30:16.166Z,22.55
2022-10-07T17:33:02.031Z,17.33
2022-10-07T17:35:47.583Z,22.67
2022-10-07T17:38:44.498Z,30.15
2022-10-07T17:41:32.869Z,23.35
2022-10-07T17:44:18.637Z,31.15
2022-10-07T17:47:05.197Z,26.02
2022-10-07T17:49:50.931Z,22.35
2022-10-07T17:52:36.419Z,23.42
2022-10-07T17:55:22.520Z,19.38
2022-10-07T17:58:08.351Z,18.52
2022-10-07T18:00:54.159Z,18.45
2022-10-07T18:03:40.330Z,17.85
2022-10-07T18:06:28.826Z,27.10
2022-10-07T18:09:18.560Z,21.10
2022-10-07T18:12:23.106Z,19.73
2022-10-07T18:15:19.503Z,21.40
2022-10-07T18:18:05.483Z,34.00
2022-10-07T18:20:52.983Z,22.42
2022-10-07T18:23:39.969Z,23.33
2022-10-07T18:26:25.622Z,24.55
2022-10-07T18:29:11.614Z,17.48
2022-10-07T18:31:57.260Z,24.55
2022-10-07T18:34:43.225Z,24.40
2022-10-07T18:37:28.571Z,21.88
2022-10-07T18:40:14.279Z,19.00
2022-10-07T18:42:59.951Z,24.83
2022-10-07T18:45:45.568Z,32.17
2022-10-07T18:48:36.548Z,22.65
2022-10-07T18:51:22.547Z,28.08
2022-10-07T18:54:08.128Z,23.27
2022-10-07T18:56:53.934Z,20.33
2022-10-07T18:59:39.573Z,22.58
2022-10-07T19:02:25.628Z,25.08
2022-10-07T19:05:11.599Z,25.73
2022-10-07T19:07:56.963Z,32.05
2022-10-07T19:10:43.078Z,20.70
2022-10-07T19:13:47.702Z,25.42
2022-10-07T19:16:38.907Z,24.10
2022-10-07T19:19:25.252Z,32.00
2022-10-07T19:22:11.239Z,23.75
2022-10-07T19:25:15.238Z,24.75
2022-10-07T19:28:00.858Z,23.77
2022-10-07T19:30:46.372Z,27.77
2022-10-07T19:33:32.231Z,30.08
2022-10-07T19:36:19.627Z,30.08
2022-10-07T19:39:07.027Z,34.83
2022-10-07T19:41:52.695Z,35.60
2022-10-07T19:44:38.390Z,35.75
2022-10-07T19:47:24.265Z,34.05
2022-10-07T19:50:10.499Z,38.92
2022-10-07T19:52:57.021Z,33.45
2022-10-07T19:55:45.310Z,33.90
2022-10-07T19:58:33.734Z,39.88
2022-10-07T20:01:21.746Z,25.42
2022-10-07T20:04:09.232Z,32.28
2022-10-07T20:06:58.563Z,34.13
2022-10-07T20:09:44.389Z,31.52
2022-10-07T20:12:30.117Z,23.73
2022-10-07T20:15:15.956Z,24.92
2022-10-07T20:18:04.255Z,35.35
2022-10-07T20:20:49.934Z,25.08
2022-10-07T20:23:37.321Z,28.77
2022-10-07T20:26:28.526Z,34.13
2022-10-07T20:29:16.018Z,30.50
2022-10-07T20:32:01.768Z,29.42
2022-10-07T20:34:50.133Z,31.73
2022-10-07T20:37:36.070Z,26.80
2022-10-07T20:40:40.143Z,33.13
2022-10-07T20:43:25.764Z,27.30
2022-10-07T20:46:11.429Z,34.88
2022-10-07T20:48:56.965Z,30.63
2022-10-07T20:51:42.645Z,26.48
2022-10-07T20:54:30.001Z,30.55
2022-10-07T20:57:19.261Z,33.33
2022-10-07T21:00:16.046Z,32.53
2022-10-07T21:03:01.913Z,30.92
2022-10-07T21:05:47.492Z,25.15
2022-10-07T21:08:33.199Z,29.83
2022-10-07T21:11:18.751Z,32.58
2022-10-07T21:14:04.916Z,34.95
2022-10-07T21:16:52.126Z,44.20
2022-10-07T21:19:40.631Z,35.72
2022-10-07T21:22:27.274Z,31.90
2022-10-07T21:25:13.036Z,34.30
2022-10-07T21:27:59.184Z,32.53
2022-10-07T21:30:54.091Z,35.83
2022-10-07T21:33:39.892Z,30.38
2022-10-07T21:36:26.238Z,31.02
2022-10-07T21:39:14.048Z,30.77
2022-10-07T21:41:59.865Z,42.17
2022-10-07T21:44:47.285Z,31.73
2022-10-07T21:47:32.935Z,30.05
2022-10-07T21:50:18.996Z,29.17
2022-10-07T21:53:04.410Z,36.85
2022-10-07T21:55:50.444Z,29.63
2022-10-07T21:58:37.167Z,28.42
2022-10-07T22:01:24.536Z,33.15
2022-10-07T22:04:16.747Z,26.75
2022-10-07T22:07:20.999Z,31.30
2022-10-07T22:10:07.159Z,31.70
2022-10-07T22:12:53.919Z,33.22
2022-10-07T22:15:39.860Z,31.13
2022-10-07T22:18:25.526Z,28.92
2022-10-07T22:21:19.704Z,29.98
2022-10-07T22:24:07.129Z,42.67
2022-10-07T22:26:52.587Z,32.58
2022-10-07T22:29:38.474Z,31.50
2022-10-07T22:32:24.318Z,35.65
2022-10-07T22:35:32.306Z,34.88
2022-10-07T22:38:17.821Z,35.00
2022-10-07T22:41:08.704Z,35.13
2022-10-07T22:43:54.412Z,28.52
2022-10-07T22:46:41.406Z,32.40
2022-10-07T22:49:30.100Z,32.25
2022-10-07T22:52:16.199Z,35.97
2022-10-07T22:55:03.911Z,30.33
2022-10-07T22:57:51.289Z,31.85
2022-10-07T23:00:38.242Z,34.40
2022-10-07T23:03:24.667Z,44.53
2022-10-07T23:06:12.495Z,36.83
2022-10-07T23:08:59.343Z,34.60
2022-10-07T23:11:46.040Z,35.75
2022-10-07T23:14:32.003Z,39.97
2022-10-07T23:17:17.657Z,34.65
2022-10-07T23:20:03.614Z,31.05
2022-10-07T23:22:49.896Z,32.13
2022-10-07T23:25:42.314Z,33.33
2022-10-07T23:28:28.284Z,30.83
2022-10-07T23:31:18.299Z,28.45
2022-10-07T23:34:05.515Z,33.63
2022-10-07T23:36:52.877Z,29.10
2022-10-07T23:39:38.976Z,30.08
2022-10-07T23:42:24.529Z,32.75
2022-10-07T23:45:10.547Z,35.80
2022-10-07T23:47:56.295Z,34.97
2022-10-07T23:50:49.281Z,30.33
2022-10-07T23:53:35.477Z,26.55
2022-10-07T23:56:21.414Z,26.23
2022-10-07T23:59:07.043Z,29.45
